sensor_id;sensor_type;location;lat;lon;timestamp;temperature;humidity
8593;DHT22;4334;49.982;8.398;2023-08-06T00:00:56;15.80;99.90
8593;DHT22;4334;49.982;8.398;2023-08-06T00:03:23;15.90;99.90
8593;DHT22;4334;49.982;8.398;2023-08-06T00:05:49;16.00;99.90
8593;DHT22;4334;49.982;8.398;2023-08-06T00:08:16;16.00;99.90
8593;DHT22;4334;49.982;8.398;2023-08-06T00:10:43;16.10;99.90
8593;DHT22;4334;49.982;8.398;2023-08-06T00:13:11;16.20;99.90
8593;DHT22;4334;49.982;8.398;2023-08-06T00:15:38;16.30;99.90
8593;DHT22;4334;49.982;8.398;2023-08-06T00:18:05;16.30;99.90
8593;DHT22;4334;49.982;8.398;2023-08-06T00:20:31;16.30;99.90
8593;DHT22;4334;49.982;8.398;2023-08-06T00:22:58;18.80;99.90
8593;DHT22;4334;49.982;8.398;2023-08-06T00:25:25;16.30;99.90
8593;DHT22;4334;49.982;8.398;2023-08-06T00:27:51;16.40;99.90
8593;DHT22;4334;49.982;8.398;2023-08-06T00:30:20;16.40;99.90
8593;DHT22;4334;49.982;8.398;2023-08-06T00:32:46;16.30;99.90
8593;DHT22;4334;49.982;8.398;2023-08-06T00:35:13;16.30;99.90
8593;DHT22;4334;49.982;8.398;2023-08-06T00:37:40;16.30;99.90
8593;DHT22;4334;49.982;8.398;2023-08-06T00:40:08;16.30;99.90
8593;DHT22;4334;49.982;8.398;2023-08-06T00:42:35;16.20;99.90
8593;DHT22;4334;49.982;8.398;2023-08-06T00:45:02;16.20;99.90
8593;DHT22;4334;49.982;8.398;2023-08-06T00:47:34;16.10;99.90
8593;DHT22;4334;49.982;8.398;2023-08-06T00:50:00;16.20;99.90
8593;DHT22;4334;49.982;8.398;2023-08-06T00:52:28;20.50;99.90
8593;DHT22;4334;49.982;8.398;2023-08-06T00:54:55;16.20;99.90
8593;DHT22;4334;49.982;8.398;2023-08-06T00:57:24;16.20;99.90
8593;DHT22;4334;49.982;8.398;2023-08-06T00:59:51;14.30;99.90
8593;DHT22;4334;49.982;8.398;2023-08-06T01:02:18;16.30;99.90
8593;DHT22;4334;49.982;8.398;2023-08-06T01:04:47;16.20;99.90
8593;DHT22;4334;49.982;8.398;2023-08-06T01:07:21;16.30;99.90
8593;DHT22;4334;49.982;8.398;2023-08-06T01:09:57;16.20;99.90
8593;DHT22;4334;49.982;8.398;2023-08-06T01:12:37;16.20;99.90
8593;DHT22;4334;49.982;8.398;2023-08-06T01:15:13;16.20;99.90
8593;DHT22;4334;49.982;8.398;2023-08-06T01:17:42;16.20;99.90
8593;DHT22;4334;49.982;8.398;2023-08-06T01:20:11;16.10;99.90
8593;DHT22;4334;49.982;8.398;2023-08-06T01:22:41;16.10;99.90
8593;DHT22;4334;49.982;8.398;2023-08-06T01:25:08;16.10;99.90
8593;DHT22;4334;49.982;8.398;2023-08-06T01:27:42;16.10;99.90
8593;DHT22;4334;49.982;8.398;2023-08-06T01:30:15;16.10;99.90
8593;DHT22;4334;49.982;8.398;2023-08-06T01:32:45;16.10;99.90
8593;DHT22;4334;49.982;8.398;2023-08-06T01:35:16;18.90;99.90
8593;DHT22;4334;49.982;8.398;2023-08-06T01:37:46;16.10;99.90
8593;DHT22;4334;49.982;8.398;2023-08-06T01:40:14;16.10;99.90
8593;DHT22;4334;49.982;8.398;2023-08-06T01:42:41;16.10;99.90
8593;DHT22;4334;49.982;8.398;2023-08-06T01:45:10;16.10;99.90
8593;DHT22;4334;49.982;8.398;2023-08-06T01:47:40;16.10;99.90
8593;DHT22;4334;49.982;8.398;2023-08-06T01:50:08;16.10;99.90
8593;DHT22;4334;49.982;8.398;2023-08-06T01:52:36;16.00;99.90
8593;DHT22;4334;49.982;8.398;2023-08-06T01:55:06;16.10;99.90
8593;DHT22;4334;49.982;8.398;2023-08-06T01:57:33;16.00;99.90
8593;DHT22;4334;49.982;8.398;2023-08-06T01:59:59;19.70;99.90
8593;DHT22;4334;49.982;8.398;2023-08-06T02:02:26;16.10;99.90
8593;DHT22;4334;49.982;8.398;2023-08-06T02:04:53;16.10;99.90
8593;DHT22;4334;49.982;8.398;2023-08-06T02:07:20;16.10;99.90
8593;DHT22;4334;49.982;8.398;2023-08-06T02:09:46;16.00;99.90
8593;DHT22;4334;49.982;8.398;2023-08-06T02:12:14;16.00;99.90
8593;DHT22;4334;49.982;8.398;2023-08-06T02:14:41;15.90;99.90
8593;DHT22;4334;49.982;8.398;2023-08-06T02:17:08;17.90;99.90
8593;DHT22;4334;49.982;8.398;2023-08-06T02:19:35;15.90;99.90
8593;DHT22;4334;49.982;8.398;2023-08-06T02:22:01;19.00;99.90
8593;DHT22;4334;49.982;8.398;2023-08-06T02:24:28;15.90;99.90
8593;DHT22;4334;49.982;8.398;2023-08-06T02:26:55;15.80;99.90
8593;DHT22;4334;49.982;8.398;2023-08-06T02:29:23;15.80;99.90
8593;DHT22;4334;49.982;8.398;2023-08-06T02:31:50;15.90;99.90
8593;DHT22;4334;49.982;8.398;2023-08-06T02:34:16;15.90;99.90
8593;DHT22;4334;49.982;8.398;2023-08-06T02:36:43;16.00;99.90
8593;DHT22;4334;49.982;8.398;2023-08-06T02:39:10;15.90;99.90
8593;DHT22;4334;49.982;8.398;2023-08-06T02:41:37;15.90;99.90
8593;DHT22;4334;49.982;8.398;2023-08-06T02:44:04;16.00;99.90
8593;DHT22;4334;49.982;8.398;2023-08-06T02:46:32;16.00;99.90
8593;DHT22;4334;49.982;8.398;2023-08-06T02:48:58;16.10;99.90
8593;DHT22;4334;49.982;8.398;2023-08-06T02:51:25;16.10;99.90
8593;DHT22;4334;49.982;8.398;2023-08-06T02:53:52;16.10;99.90
8593;DHT22;4334;49.982;8.398;2023-08-06T02:56:19;16.10;99.90
8593;DHT22;4334;49.982;8.398;2023-08-06T02:58:46;16.10;99.90
8593;DHT22;4334;49.982;8.398;2023-08-06T03:01:12;16.10;99.90
8593;DHT22;4334;49.982;8.398;2023-08-06T03:03:40;17.60;99.90
8593;DHT22;4334;49.982;8.398;2023-08-06T03:06:07;16.10;99.90
8593;DHT22;4334;49.982;8.398;2023-08-06T03:08:34;16.10;99.90
8593;DHT22;4334;49.982;8.398;2023-08-06T03:11:01;16.00;99.90
8593;DHT22;4334;49.982;8.398;2023-08-06T03:13:28;16.00;99.90
8593;DHT22;4334;49.982;8.398;2023-08-06T03:15:55;16.00;99.90
8593;DHT22;4334;49.982;8.398;2023-08-06T03:18:22;16.00;99.90
8593;DHT22;4334;49.982;8.398;2023-08-06T03:20:52;16.00;99.90
8593;DHT22;4334;49.982;8.398;2023-08-06T03:23:19;16.10;99.90
8593;DHT22;4334;49.982;8.398;2023-08-06T03:25:46;16.00;99.90
8593;DHT22;4334;49.982;8.398;2023-08-06T03:28:13;16.00;99.90
8593;DHT22;4334;49.982;8.398;2023-08-06T03:30:40;16.00;99.90
8593;DHT22;4334;49.982;8.398;2023-08-06T03:33:06;15.90;99.90
8593;DHT22;4334;49.982;8.398;2023-08-06T03:35:33;15.90;99.90
8593;DHT22;4334;49.982;8.398;2023-08-06T03:38:01;15.90;99.90
8593;DHT22;4334;49.982;8.398;2023-08-06T03:40:28;15.90;99.90
8593;DHT22;4334;49.982;8.398;2023-08-06T03:42:55;15.90;99.90
8593;DHT22;4334;49.982;8.398;2023-08-06T03:45:22;15.90;99.90
8593;DHT22;4334;49.982;8.398;2023-08-06T03:47:49;15.90;99.90
8593;DHT22;4334;49.982;8.398;2023-08-06T03:50:16;15.90;99.90
8593;DHT22;4334;49.982;8.398;2023-08-06T03:52:43;16.00;99.90
8593;DHT22;4334;49.982;8.398;2023-08-06T03:55:12;16.30;99.90
8593;DHT22;4334;49.982;8.398;2023-08-06T03:57:39;15.90;99.90
8593;DHT22;4334;49.982;8.398;2023-08-06T04:00:07;16.00;99.90
8593;DHT22;4334;49.982;8.398;2023-08-06T04:02:34;16.00;99.90
8593;DHT22;4334;49.982;8.398;2023-08-06T04:05:01;15.80;99.90
8593;DHT22;4334;49.982;8.398;2023-08-06T04:07:28;15.90;99.90
8593;DHT22;4334;49.982;8.398;2023-08-06T04:09:56;15.90;99.90
8593;DHT22;4334;49.982;8.398;2023-08-06T04:12:25;15.90;99.90
8593;DHT22;4334;49.982;8.398;2023-08-06T04:14:52;15.90;99.90
8593;DHT22;4334;49.982;8.398;2023-08-06T04:17:20;15.90;99.90
8593;DHT22;4334;49.982;8.398;2023-08-06T04:19:48;15.90;99.90
8593;DHT22;4334;49.982;8.398;2023-08-06T04:22:15;16.00;99.90
8593;DHT22;4334;49.982;8.398;2023-08-06T04:24:42;16.00;99.90
8593;DHT22;4334;49.982;8.398;2023-08-06T04:27:09;16.00;99.90
8593;DHT22;4334;49.982;8.398;2023-08-06T04:29:38;15.90;99.90
8593;DHT22;4334;49.982;8.398;2023-08-06T04:32:06;15.80;99.90
8593;DHT22;4334;49.982;8.398;2023-08-06T04:34:33;15.70;99.90
8593;DHT22;4334;49.982;8.398;2023-08-06T04:37:01;18.20;99.90
8593;DHT22;4334;49.982;8.398;2023-08-06T04:39:27;15.50;99.90
8593;DHT22;4334;49.982;8.398;2023-08-06T04:41:55;15.50;99.90
8593;DHT22;4334;49.982;8.398;2023-08-06T04:44:22;15.50;99.90
8593;DHT22;4334;49.982;8.398;2023-08-06T04:46:50;15.60;99.90
8593;DHT22;4334;49.982;8.398;2023-08-06T04:49:17;15.60;99.90
8593;DHT22;4334;49.982;8.398;2023-08-06T04:51:44;15.60;99.90
8593;DHT22;4334;49.982;8.398;2023-08-06T04:54:11;15.60;99.90
8593;DHT22;4334;49.982;8.398;2023-08-06T04:56:37;15.50;99.90
8593;DHT22;4334;49.982;8.398;2023-08-06T04:59:04;15.40;99.90
8593;DHT22;4334;49.982;8.398;2023-08-06T05:01:31;15.50;99.90
8593;DHT22;4334;49.982;8.398;2023-08-06T05:03:59;15.50;99.90
8593;DHT22;4334;49.982;8.398;2023-08-06T05:06:26;15.50;99.90
8593;DHT22;4334;49.982;8.398;2023-08-06T05:08:53;19.00;99.90
8593;DHT22;4334;49.982;8.398;2023-08-06T05:11:19;16.90;99.90
8593;DHT22;4334;49.982;8.398;2023-08-06T05:13:46;15.20;99.90
8593;DHT22;4334;49.982;8.398;2023-08-06T05:16:13;15.30;99.90
8593;DHT22;4334;49.982;8.398;2023-08-06T05:18:40;15.30;99.90
8593;DHT22;4334;49.982;8.398;2023-08-06T05:21:08;15.20;99.90
8593;DHT22;4334;49.982;8.398;2023-08-06T05:23:35;15.20;99.90
8593;DHT22;4334;49.982;8.398;2023-08-06T05:26:02;15.20;99.90
8593;DHT22;4334;49.982;8.398;2023-08-06T05:28:28;15.20;99.90
8593;DHT22;4334;49.982;8.398;2023-08-06T05:30:55;15.30;99.90
8593;DHT22;4334;49.982;8.398;2023-08-06T05:33:22;15.30;99.90
8593;DHT22;4334;49.982;8.398;2023-08-06T05:35:49;15.40;99.90
8593;DHT22;4334;49.982;8.398;2023-08-06T05:38:17;15.50;99.90
8593;DHT22;4334;49.982;8.398;2023-08-06T05:40:44;15.50;99.90
8593;DHT22;4334;49.982;8.398;2023-08-06T05:43:11;15.50;99.90
8593;DHT22;4334;49.982;8.398;2023-08-06T05:45:38;15.40;99.90
8593;DHT22;4334;49.982;8.398;2023-08-06T05:48:04;15.50;99.90
8593;DHT22;4334;49.982;8.398;2023-08-06T05:50:31;15.50;99.90
8593;DHT22;4334;49.982;8.398;2023-08-06T05:52:58;19.60;99.90
8593;DHT22;4334;49.982;8.398;2023-08-06T05:55:26;15.60;99.90
8593;DHT22;4334;49.982;8.398;2023-08-06T05:57:53;15.50;99.90
8593;DHT22;4334;49.982;8.398;2023-08-06T06:00:21;15.50;99.90
8593;DHT22;4334;49.982;8.398;2023-08-06T06:02:48;15.50;99.90
8593;DHT22;4334;49.982;8.398;2023-08-06T06:05:14;19.70;99.90
8593;DHT22;4334;49.982;8.398;2023-08-06T06:07:41;15.50;99.90
8593;DHT22;4334;49.982;8.398;2023-08-06T06:10:09;15.40;99.90
8593;DHT22;4334;49.982;8.398;2023-08-06T06:12:38;15.60;99.90
8593;DHT22;4334;49.982;8.398;2023-08-06T06:15:07;15.60;99.90
8593;DHT22;4334;49.982;8.398;2023-08-06T06:17:37;15.60;99.90
8593;DHT22;4334;49.982;8.398;2023-08-06T06:20:05;15.50;99.90
8593;DHT22;4334;49.982;8.398;2023-08-06T06:22:32;15.40;99.90
8593;DHT22;4334;49.982;8.398;2023-08-06T06:24:59;15.40;99.90
8593;DHT22;4334;49.982;8.398;2023-08-06T06:27:26;15.40;99.90
8593;DHT22;4334;49.982;8.398;2023-08-06T06:29:54;15.30;99.90
8593;DHT22;4334;49.982;8.398;2023-08-06T06:32:21;15.50;99.90
8593;DHT22;4334;49.982;8.398;2023-08-06T06:34:48;15.50;99.90
8593;DHT22;4334;49.982;8.398;2023-08-06T06:37:14;15.50;99.90
8593;DHT22;4334;49.982;8.398;2023-08-06T06:39:42;15.50;99.90
8593;DHT22;4334;49.982;8.398;2023-08-06T06:42:09;15.50;99.90
8593;DHT22;4334;49.982;8.398;2023-08-06T06:44:36;15.50;99.90
8593;DHT22;4334;49.982;8.398;2023-08-06T06:47:04;19.90;99.90
8593;DHT22;4334;49.982;8.398;2023-08-06T06:49:34;15.60;99.90
8593;DHT22;4334;49.982;8.398;2023-08-06T06:52:01;15.50;99.90
8593;DHT22;4334;49.982;8.398;2023-08-06T06:54:28;15.50;99.90
8593;DHT22;4334;49.982;8.398;2023-08-06T06:56:54;15.50;99.90
8593;DHT22;4334;49.982;8.398;2023-08-06T06:59:21;15.40;99.90
8593;DHT22;4334;49.982;8.398;2023-08-06T07:01:48;15.50;99.90
8593;DHT22;4334;49.982;8.398;2023-08-06T07:04:16;15.50;99.90
8593;DHT22;4334;49.982;8.398;2023-08-06T07:06:42;15.40;99.90
8593;DHT22;4334;49.982;8.398;2023-08-06T07:09:09;15.50;99.90
8593;DHT22;4334;49.982;8.398;2023-08-06T07:11:36;18.80;99.90
8593;DHT22;4334;49.982;8.398;2023-08-06T07:14:03;15.60;99.90
8593;DHT22;4334;49.982;8.398;2023-08-06T07:16:30;15.70;99.90
8593;DHT22;4334;49.982;8.398;2023-08-06T07:18:56;15.80;99.90
8593;DHT22;4334;49.982;8.398;2023-08-06T07:21:25;15.80;99.90
8593;DHT22;4334;49.982;8.398;2023-08-06T07:23:52;15.70;99.90
8593;DHT22;4334;49.982;8.398;2023-08-06T07:26:18;15.80;99.90
8593;DHT22;4334;49.982;8.398;2023-08-06T07:28:45;15.80;99.90
8593;DHT22;4334;49.982;8.398;2023-08-06T07:31:12;16.90;99.90
8593;DHT22;4334;49.982;8.398;2023-08-06T07:33:39;15.90;99.90
8593;DHT22;4334;49.982;8.398;2023-08-06T07:36:09;16.10;99.90
8593;DHT22;4334;49.982;8.398;2023-08-06T07:38:37;16.10;99.90
8593;DHT22;4334;49.982;8.398;2023-08-06T07:41:04;16.10;99.90
8593;DHT22;4334;49.982;8.398;2023-08-06T07:43:31;16.60;99.90
8593;DHT22;4334;49.982;8.398;2023-08-06T07:45:58;16.10;99.90
8593;DHT22;4334;49.982;8.398;2023-08-06T07:48:26;16.10;99.90
8593;DHT22;4334;49.982;8.398;2023-08-06T07:50:53;16.30;99.90
8593;DHT22;4334;49.982;8.398;2023-08-06T07:53:20;16.40;99.90
8593;DHT22;4334;49.982;8.398;2023-08-06T07:55:50;16.60;99.90
8593;DHT22;4334;49.982;8.398;2023-08-06T07:58:17;16.80;99.90
8593;DHT22;4334;49.982;8.398;2023-08-06T08:00:44;17.00;99.90
8593;DHT22;4334;49.982;8.398;2023-08-06T08:03:11;17.40;99.90
8593;DHT22;4334;49.982;8.398;2023-08-06T08:05:38;17.50;99.90
8593;DHT22;4334;49.982;8.398;2023-08-06T08:08:05;17.70;99.90
8593;DHT22;4334;49.982;8.398;2023-08-06T08:10:33;17.90;99.90
8593;DHT22;4334;49.982;8.398;2023-08-06T08:13:02;18.20;99.90
8593;DHT22;4334;49.982;8.398;2023-08-06T08:15:30;18.50;99.90
8593;DHT22;4334;49.982;8.398;2023-08-06T08:17:57;18.80;99.90
8593;DHT22;4334;49.982;8.398;2023-08-06T08:20:24;19.00;99.90
8593;DHT22;4334;49.982;8.398;2023-08-06T08:22:53;19.30;99.90
8593;DHT22;4334;49.982;8.398;2023-08-06T08:25:20;20.00;99.90
8593;DHT22;4334;49.982;8.398;2023-08-06T08:27:46;20.70;99.90
8593;DHT22;4334;49.982;8.398;2023-08-06T08:30:18;21.10;99.90
8593;DHT22;4334;49.982;8.398;2023-08-06T08:32:45;21.70;99.90
8593;DHT22;4334;49.982;8.398;2023-08-06T08:35:13;21.60;99.90
8593;DHT22;4334;49.982;8.398;2023-08-06T08:37:41;21.40;99.90
8593;DHT22;4334;49.982;8.398;2023-08-06T08:40:09;21.00;99.90
8593;DHT22;4334;49.982;8.398;2023-08-06T08:42:38;20.60;99.90
8593;DHT22;4334;49.982;8.398;2023-08-06T08:45:11;20.50;99.90
8593;DHT22;4334;49.982;8.398;2023-08-06T08:47:42;20.40;99.90
8593;DHT22;4334;49.982;8.398;2023-08-06T08:50:10;20.80;99.90
8593;DHT22;4334;49.982;8.398;2023-08-06T08:52:39;21.40;99.90
8593;DHT22;4334;49.982;8.398;2023-08-06T08:55:10;24.40;99.90
8593;DHT22;4334;49.982;8.398;2023-08-06T08:57:40;21.40;99.90
8593;DHT22;4334;49.982;8.398;2023-08-06T09:00:10;22.00;99.90
8593;DHT22;4334;49.982;8.398;2023-08-06T09:02:42;20.50;99.90
8593;DHT22;4334;49.982;8.398;2023-08-06T09:05:10;21.00;99.90
8593;DHT22;4334;49.982;8.398;2023-08-06T09:07:43;20.70;99.90
8593;DHT22;4334;49.982;8.398;2023-08-06T09:10:14;20.30;99.90
8593;DHT22;4334;49.982;8.398;2023-08-06T09:12:43;23.90;99.90
8593;DHT22;4334;49.982;8.398;2023-08-06T09:15:11;19.40;99.90
8593;DHT22;4334;49.982;8.398;2023-08-06T09:17:39;23.80;99.90
8593;DHT22;4334;49.982;8.398;2023-08-06T09:20:12;19.70;99.90
8593;DHT22;4334;49.982;8.398;2023-08-06T09:22:39;19.70;99.90
8593;DHT22;4334;49.982;8.398;2023-08-06T09:25:07;19.80;99.90
8593;DHT22;4334;49.982;8.398;2023-08-06T09:27:35;20.10;99.90
8593;DHT22;4334;49.982;8.398;2023-08-06T09:30:05;19.80;99.90
8593;DHT22;4334;49.982;8.398;2023-08-06T09:32:45;19.10;99.90
8593;DHT22;4334;49.982;8.398;2023-08-06T09:35:17;18.30;99.90
8593;DHT22;4334;49.982;8.398;2023-08-06T09:37:44;17.60;99.90
8593;DHT22;4334;49.982;8.398;2023-08-06T09:40:27;17.30;99.90
8593;DHT22;4334;49.982;8.398;2023-08-06T09:42:54;17.60;99.90
8593;DHT22;4334;49.982;8.398;2023-08-06T09:45:21;17.80;99.90
8593;DHT22;4334;49.982;8.398;2023-08-06T09:47:48;17.80;99.90
8593;DHT22;4334;49.982;8.398;2023-08-06T09:50:18;17.80;99.90
8593;DHT22;4334;49.982;8.398;2023-08-06T09:52:46;18.20;99.90
8593;DHT22;4334;49.982;8.398;2023-08-06T09:55:13;18.50;99.90
8593;DHT22;4334;49.982;8.398;2023-08-06T09:57:41;18.60;99.90
8593;DHT22;4334;49.982;8.398;2023-08-06T10:00:09;22.50;99.90
8593;DHT22;4334;49.982;8.398;2023-08-06T10:02:38;18.60;99.90
8593;DHT22;4334;49.982;8.398;2023-08-06T10:05:06;20.40;99.90
8593;DHT22;4334;49.982;8.398;2023-08-06T10:07:34;19.80;99.90
8593;DHT22;4334;49.982;8.398;2023-08-06T10:10:03;18.80;99.90
8593;DHT22;4334;49.982;8.398;2023-08-06T10:12:34;18.60;99.90
8593;DHT22;4334;49.982;8.398;2023-08-06T10:15:06;18.70;99.90
8593;DHT22;4334;49.982;8.398;2023-08-06T10:17:36;19.20;99.90
8593;DHT22;4334;49.982;8.398;2023-08-06T10:20:05;19.60;99.90
8593;DHT22;4334;49.982;8.398;2023-08-06T10:22:35;19.70;99.90
8593;DHT22;4334;49.982;8.398;2023-08-06T10:25:03;19.80;99.90
8593;DHT22;4334;49.982;8.398;2023-08-06T10:27:36;20.20;99.90
8593;DHT22;4334;49.982;8.398;2023-08-06T10:30:22;20.80;99.90
8593;DHT22;4334;49.982;8.398;2023-08-06T10:32:49;22.90;99.90
8593;DHT22;4334;49.982;8.398;2023-08-06T10:35:35;21.70;99.90
8593;DHT22;4334;49.982;8.398;2023-08-06T10:38:09;22.40;99.90
8593;DHT22;4334;49.982;8.398;2023-08-06T10:40:36;23.00;99.90
8593;DHT22;4334;49.982;8.398;2023-08-06T10:43:04;27.30;99.90
8593;DHT22;4334;49.982;8.398;2023-08-06T10:45:34;22.90;99.90
8593;DHT22;4334;49.982;8.398;2023-08-06T10:48:02;22.70;99.90
8593;DHT22;4334;49.982;8.398;2023-08-06T10:50:29;22.50;99.90
8593;DHT22;4334;49.982;8.398;2023-08-06T10:52:57;22.20;99.90
8593;DHT22;4334;49.982;8.398;2023-08-06T10:55:29;22.10;99.90
8593;DHT22;4334;49.982;8.398;2023-08-06T10:57:56;23.80;99.90
8593;DHT22;4334;49.982;8.398;2023-08-06T11:00:24;21.10;99.90
8593;DHT22;4334;49.982;8.398;2023-08-06T11:02:52;20.40;99.90
8593;DHT22;4334;49.982;8.398;2023-08-06T11:05:19;19.50;99.90
8593;DHT22;4334;49.982;8.398;2023-08-06T11:07:46;18.90;99.90
8593;DHT22;4334;49.982;8.398;2023-08-06T11:10:15;18.30;99.90
8593;DHT22;4334;49.982;8.398;2023-08-06T11:12:43;18.20;99.90
8593;DHT22;4334;49.982;8.398;2023-08-06T11:15:11;18.30;99.90
8593;DHT22;4334;49.982;8.398;2023-08-06T11:17:40;18.50;99.90
8593;DHT22;4334;49.982;8.398;2023-08-06T11:20:08;18.60;99.90
8593;DHT22;4334;49.982;8.398;2023-08-06T11:22:36;18.50;99.90
8593;DHT22;4334;49.982;8.398;2023-08-06T11:25:06;18.50;99.90
8593;DHT22;4334;49.982;8.398;2023-08-06T11:27:33;16.10;99.90
8593;DHT22;4334;49.982;8.398;2023-08-06T11:30:02;18.60;99.90
8593;DHT22;4334;49.982;8.398;2023-08-06T11:32:29;18.20;99.90
8593;DHT22;4334;49.982;8.398;2023-08-06T11:34:56;17.40;99.90
8593;DHT22;4334;49.982;8.398;2023-08-06T11:37:23;15.90;99.90
8593;DHT22;4334;49.982;8.398;2023-08-06T11:39:51;16.70;99.90
8593;DHT22;4334;49.982;8.398;2023-08-06T11:42:18;16.50;99.90
8593;DHT22;4334;49.982;8.398;2023-08-06T11:44:45;16.20;99.90
8593;DHT22;4334;49.982;8.398;2023-08-06T11:47:15;16.20;99.90
8593;DHT22;4334;49.982;8.398;2023-08-06T11:49:44;20.60;99.90
8593;DHT22;4334;49.982;8.398;2023-08-06T11:52:14;16.20;99.90
8593;DHT22;4334;49.982;8.398;2023-08-06T11:54:41;16.10;99.90
8593;DHT22;4334;49.982;8.398;2023-08-06T11:57:08;15.90;99.90
8593;DHT22;4334;49.982;8.398;2023-08-06T11:59:37;15.90;99.90
8593;DHT22;4334;49.982;8.398;2023-08-06T12:02:04;15.90;99.90
8593;DHT22;4334;49.982;8.398;2023-08-06T12:04:57;15.90;99.90
8593;DHT22;4334;49.982;8.398;2023-08-06T12:07:27;15.90;99.90
8593;DHT22;4334;49.982;8.398;2023-08-06T12:09:53;18.90;99.90
8593;DHT22;4334;49.982;8.398;2023-08-06T12:12:20;15.90;99.90
8593;DHT22;4334;49.982;8.398;2023-08-06T12:14:47;16.00;99.90
8593;DHT22;4334;49.982;8.398;2023-08-06T12:17:14;19.60;99.90
8593;DHT22;4334;49.982;8.398;2023-08-06T12:19:44;16.40;99.90
8593;DHT22;4334;49.982;8.398;2023-08-06T12:22:12;20.00;99.90
8593;DHT22;4334;49.982;8.398;2023-08-06T12:24:39;16.80;99.90
8593;DHT22;4334;49.982;8.398;2023-08-06T12:27:06;17.00;99.90
8593;DHT22;4334;49.982;8.398;2023-08-06T12:29:33;16.90;99.90
8593;DHT22;4334;49.982;8.398;2023-08-06T12:31:59;17.10;99.90
8593;DHT22;4334;49.982;8.398;2023-08-06T12:34:26;17.40;99.90
8593;DHT22;4334;49.982;8.398;2023-08-06T12:36:54;17.40;99.90
8593;DHT22;4334;49.982;8.398;2023-08-06T12:39:21;17.70;99.90
8593;DHT22;4334;49.982;8.398;2023-08-06T12:41:47;17.70;99.90
8593;DHT22;4334;49.982;8.398;2023-08-06T12:44:14;21.70;99.90
8593;DHT22;4334;49.982;8.398;2023-08-06T12:46:41;17.60;99.90
8593;DHT22;4334;49.982;8.398;2023-08-06T12:49:08;17.40;99.90
8593;DHT22;4334;49.982;8.398;2023-08-06T12:51:34;17.10;99.90
8593;DHT22;4334;49.982;8.398;2023-08-06T12:54:03;16.90;99.90
8593;DHT22;4334;49.982;8.398;2023-08-06T12:56:29;16.60;99.90
8593;DHT22;4334;49.982;8.398;2023-08-06T12:58:56;16.60;99.90
8593;DHT22;4334;49.982;8.398;2023-08-06T13:01:23;16.30;99.90
8593;DHT22;4334;49.982;8.398;2023-08-06T13:03:50;16.10;99.90
8593;DHT22;4334;49.982;8.398;2023-08-06T13:06:17;16.00;99.90
8593;DHT22;4334;49.982;8.398;2023-08-06T13:08:43;17.70;99.90
8593;DHT22;4334;49.982;8.398;2023-08-06T13:11:11;15.80;99.90
8593;DHT22;4334;49.982;8.398;2023-08-06T13:13:38;15.60;99.90
8593;DHT22;4334;49.982;8.398;2023-08-06T13:16:05;15.60;99.90
8593;DHT22;4334;49.982;8.398;2023-08-06T13:18:32;15.50;99.90
8593;DHT22;4334;49.982;8.398;2023-08-06T13:20:59;15.40;99.90
8593;DHT22;4334;49.982;8.398;2023-08-06T13:23:26;15.40;99.90
8593;DHT22;4334;49.982;8.398;2023-08-06T13:25:53;15.40;99.90
8593;DHT22;4334;49.982;8.398;2023-08-06T13:28:22;17.80;99.90
8593;DHT22;4334;49.982;8.398;2023-08-06T13:30:48;15.30;99.90
8593;DHT22;4334;49.982;8.398;2023-08-06T13:33:15;15.30;99.90
8593;DHT22;4334;49.982;8.398;2023-08-06T13:35:42;15.30;99.90
8593;DHT22;4334;49.982;8.398;2023-08-06T13:38:09;15.30;99.90
8593;DHT22;4334;49.982;8.398;2023-08-06T13:40:37;15.30;99.90
8593;DHT22;4334;49.982;8.398;2023-08-06T13:43:04;15.30;99.90
8593;DHT22;4334;49.982;8.398;2023-08-06T13:45:32;15.40;99.90
8593;DHT22;4334;49.982;8.398;2023-08-06T13:48:00;15.40;99.90
8593;DHT22;4334;49.982;8.398;2023-08-06T13:50:27;15.40;99.90
8593;DHT22;4334;49.982;8.398;2023-08-06T13:52:54;17.80;99.90
8593;DHT22;4334;49.982;8.398;2023-08-06T13:55:21;15.60;99.90
8593;DHT22;4334;49.982;8.398;2023-08-06T13:57:48;15.90;99.90
8593;DHT22;4334;49.982;8.398;2023-08-06T14:00:17;15.90;99.90
8593;DHT22;4334;49.982;8.398;2023-08-06T14:02:46;16.00;99.90
8593;DHT22;4334;49.982;8.398;2023-08-06T14:05:13;16.20;99.90
8593;DHT22;4334;49.982;8.398;2023-08-06T14:07:40;16.30;99.90
8593;DHT22;4334;49.982;8.398;2023-08-06T14:10:08;16.60;99.90
8593;DHT22;4334;49.982;8.398;2023-08-06T14:12:36;16.80;99.90
8593;DHT22;4334;49.982;8.398;2023-08-06T14:15:04;16.80;99.90
8593;DHT22;4334;49.982;8.398;2023-08-06T14:17:31;17.00;99.90
8593;DHT22;4334;49.982;8.398;2023-08-06T14:19:59;17.40;99.90
8593;DHT22;4334;49.982;8.398;2023-08-06T14:22:29;17.50;99.90
8593;DHT22;4334;49.982;8.398;2023-08-06T14:24:57;17.30;99.90
8593;DHT22;4334;49.982;8.398;2023-08-06T14:27:24;17.20;99.90
8593;DHT22;4334;49.982;8.398;2023-08-06T14:29:50;17.30;99.90
8593;DHT22;4334;49.982;8.398;2023-08-06T14:32:17;17.20;99.90
8593;DHT22;4334;49.982;8.398;2023-08-06T14:34:45;17.40;99.90
8593;DHT22;4334;49.982;8.398;2023-08-06T14:37:13;17.50;99.90
8593;DHT22;4334;49.982;8.398;2023-08-06T14:39:40;17.60;99.90
8593;DHT22;4334;49.982;8.398;2023-08-06T14:42:06;17.60;99.90
8593;DHT22;4334;49.982;8.398;2023-08-06T14:44:33;17.30;99.90
8593;DHT22;4334;49.982;8.398;2023-08-06T14:47:00;17.10;99.90
8593;DHT22;4334;49.982;8.398;2023-08-06T14:49:27;17.90;99.90
8593;DHT22;4334;49.982;8.398;2023-08-06T14:51:54;16.90;99.90
8593;DHT22;4334;49.982;8.398;2023-08-06T14:54:26;17.00;99.90
8593;DHT22;4334;49.982;8.398;2023-08-06T14:56:53;17.00;99.90
8593;DHT22;4334;49.982;8.398;2023-08-06T14:59:20;17.10;99.90
8593;DHT22;4334;49.982;8.398;2023-08-06T15:01:46;17.00;99.90
8593;DHT22;4334;49.982;8.398;2023-08-06T15:04:13;17.10;99.90
8593;DHT22;4334;49.982;8.398;2023-08-06T15:06:40;17.20;99.90
8593;DHT22;4334;49.982;8.398;2023-08-06T15:09:07;17.30;99.90
8593;DHT22;4334;49.982;8.398;2023-08-06T15:11:35;17.20;99.90
8593;DHT22;4334;49.982;8.398;2023-08-06T15:14:03;17.10;99.90
8593;DHT22;4334;49.982;8.398;2023-08-06T15:16:32;17.00;99.90
8593;DHT22;4334;49.982;8.398;2023-08-06T15:18:59;17.00;99.90
8593;DHT22;4334;49.982;8.398;2023-08-06T15:21:26;17.00;99.90
8593;DHT22;4334;49.982;8.398;2023-08-06T15:23:53;17.10;99.90
8593;DHT22;4334;49.982;8.398;2023-08-06T15:26:20;17.10;99.90
8593;DHT22;4334;49.982;8.398;2023-08-06T15:28:48;17.90;99.90
8593;DHT22;4334;49.982;8.398;2023-08-06T15:31:16;17.10;99.90
8593;DHT22;4334;49.982;8.398;2023-08-06T15:33:45;19.40;99.90
8593;DHT22;4334;49.982;8.398;2023-08-06T15:36:12;16.80;99.90
8593;DHT22;4334;49.982;8.398;2023-08-06T15:38:39;16.80;99.90
8593;DHT22;4334;49.982;8.398;2023-08-06T15:41:06;16.70;99.90
8593;DHT22;4334;49.982;8.398;2023-08-06T15:43:32;16.70;99.90
8593;DHT22;4334;49.982;8.398;2023-08-06T15:46:01;16.50;99.90
8593;DHT22;4334;49.982;8.398;2023-08-06T15:48:27;16.40;99.90
8593;DHT22;4334;49.982;8.398;2023-08-06T15:50:56;16.40;99.90
8593;DHT22;4334;49.982;8.398;2023-08-06T15:53:23;18.50;99.90
8593;DHT22;4334;49.982;8.398;2023-08-06T15:55:50;16.40;99.90
8593;DHT22;4334;49.982;8.398;2023-08-06T15:58:17;20.30;99.90
8593;DHT22;4334;49.982;8.398;2023-08-06T16:00:44;17.70;99.90
8593;DHT22;4334;49.982;8.398;2023-08-06T16:03:12;16.50;99.90
8593;DHT22;4334;49.982;8.398;2023-08-06T16:05:39;14.60;99.90